createdAt,value
2023-05-10T00:01:13.667Z,13.60
2023-05-10T00:03:46.563Z,13.85
2023-05-10T00:06:19.316Z,13.48
2023-05-10T00:08:51.874Z,13.63
2023-05-10T00:11:24.428Z,12.90
2023-05-10T00:13:56.940Z,13.73
2023-05-10T00:16:29.623Z,12.77
2023-05-10T00:19:02.261Z,12.50
2023-05-10T00:21:34.997Z,13.88
2023-05-10T00:24:07.734Z,12.93
2023-05-10T00:26:40.332Z,14.85
2023-05-10T00:31:45.869Z,12.07
2023-05-10T00:34:18.443Z,12.60
2023-05-10T00:36:51.121Z,11.48
2023-05-10T00:39:23.817Z,9.65
2023-05-10T00:41:56.403Z,8.85
2023-05-10T00:44:29.235Z,9.23
2023-05-10T00:47:02.003Z,8.18
2023-05-10T00:49:34.711Z,7.93
2023-05-10T00:52:07.565Z,7.88
2023-05-10T00:54:40.402Z,7.60
2023-05-10T00:57:12.969Z,7.30
2023-05-10T00:59:45.959Z,6.80
2023-05-10T01:02:19.526Z,7.00
2023-05-10T01:04:53.153Z,6.47
2023-05-10T01:07:25.808Z,6.80
2023-05-10T01:09:58.876Z,5.93
2023-05-10T01:12:31.592Z,5.22
2023-05-10T01:15:05.658Z,7.07
2023-05-10T01:17:40.574Z,15.77
2023-05-10T01:20:14.534Z,6.45
2023-05-10T01:23:14.250Z,5.93
2023-05-10T01:26:05.720Z,5.32
2023-05-10T01:29:00.824Z,6.03
2023-05-10T01:31:57.249Z,6.43
2023-05-10T01:34:42.217Z,6.05
2023-05-10T01:37:21.633Z,5.45
2023-05-10T01:40:09.972Z,5.55
2023-05-10T01:42:51.185Z,5.63
2023-05-10T01:45:41.783Z,5.80
2023-05-10T01:48:16.258Z,5.43
2023-05-10T01:50:52.443Z,5.30
2023-05-10T01:53:25.413Z,5.32
2023-05-10T01:55:59.954Z,6.65
2023-05-10T01:58:36.509Z,5.95
2023-05-10T02:01:11.083Z,5.88
2023-05-10T02:03:45.361Z,6.88
2023-05-10T02:06:21.488Z,5.85
2023-05-10T02:08:55.100Z,5.00
2023-05-10T02:11:29.659Z,4.70
2023-05-10T02:14:03.667Z,5.22
2023-05-10T02:16:38.255Z,5.25
2023-05-10T02:19:13.225Z,5.35
2023-05-10T02:21:47.129Z,4.80
2023-05-10T02:24:20.618Z,4.88
2023-05-10T02:26:57.088Z,4.50
2023-05-10T02:29:30.641Z,5.40
2023-05-10T02:32:03.858Z,4.72
2023-05-10T02:34:37.426Z,4.25
2023-05-10T02:37:11.371Z,4.80
2023-05-10T02:39:46.750Z,4.72
2023-05-10T02:42:27.975Z,4.65
2023-05-10T02:45:09.290Z,5.28
2023-05-10T02:47:42.180Z,5.05
2023-05-10T02:50:15.077Z,4.82
2023-05-10T02:53:03.139Z,5.32
2023-05-10T02:55:40.140Z,5.22
2023-05-10T02:58:12.960Z,6.07
2023-05-10T03:00:46.461Z,5.10
2023-05-10T03:03:19.023Z,5.30
2023-05-10T03:05:51.765Z,5.43
2023-05-10T03:08:25.295Z,5.30
2023-05-10T03:11:35.372Z,6.22
2023-05-10T03:14:25.448Z,5.30
2023-05-10T03:17:17.469Z,4.93
2023-05-10T03:19:57.526Z,5.40
2023-05-10T03:22:38.686Z,5.25
2023-05-10T03:25:13.783Z,5.95
2023-05-10T03:27:47.298Z,5.65
2023-05-10T03:30:20.850Z,6.20
2023-05-10T03:32:53.473Z,5.88
2023-05-10T03:35:26.812Z,6.15
2023-05-10T03:37:59.481Z,6.10
2023-05-10T03:40:33.289Z,6.40
2023-05-10T03:43:06.180Z,6.50
2023-05-10T03:45:38.733Z,7.68
2023-05-10T03:48:11.652Z,7.43
2023-05-10T03:50:44.299Z,8.07
2023-05-10T03:53:17.412Z,8.02
2023-05-10T03:55:50.217Z,7.55
2023-05-10T03:58:23.191Z,7.22
2023-05-10T04:00:56.581Z,7.80
2023-05-10T04:03:29.351Z,7.43
2023-05-10T04:06:03.181Z,7.68
2023-05-10T04:08:35.810Z,8.05
2023-05-10T04:11:12.840Z,6.95
2023-05-10T04:13:45.544Z,7.90
2023-05-10T04:16:18.337Z,8.65
2023-05-10T04:18:50.787Z,8.00
2023-05-10T04:21:23.404Z,7.82
2023-05-10T04:23:56.024Z,7.15
2023-05-10T04:26:28.890Z,8.38
2023-05-10T04:29:01.425Z,7.93
2023-05-10T04:31:34.022Z,8.48
2023-05-10T04:34:06.908Z,8.43
2023-05-10T04:36:39.590Z,9.02
2023-05-10T04:39:12.176Z,8.80
2023-05-10T04:41:44.783Z,8.45
2023-05-10T04:44:17.415Z,8.07
2023-05-10T04:46:50.059Z,8.55
2023-05-10T04:49:23.015Z,9.13
2023-05-10T04:51:55.825Z,8.93
2023-05-10T04:54:28.422Z,9.95
2023-05-10T04:57:01.042Z,9.52
2023-05-10T04:59:33.709Z,9.15
2023-05-10T05:02:07.173Z,8.95
2023-05-10T05:04:39.819Z,9.27
2023-05-10T05:07:12.414Z,10.18
2023-05-10T05:09:44.938Z,10.32
2023-05-10T05:12:17.563Z,9.95
2023-05-10T05:14:50.132Z,9.93
2023-05-10T05:17:22.742Z,8.52
2023-05-10T05:19:55.553Z,8.68
2023-05-10T05:22:30.805Z,9.82
2023-05-10T05:25:04.649Z,9.27
2023-05-10T05:27:37.137Z,8.27
2023-05-10T05:30:10.359Z,9.60
2023-05-10T05:32:42.975Z,9.40
2023-05-10T05:35:16.058Z,8.55
2023-05-10T05:37:48.801Z,7.25
2023-05-10T05:40:21.773Z,8.50
2023-05-10T05:45:26.857Z,8.45
2023-05-10T05:47:59.667Z,8.77
2023-05-10T05:50:32.597Z,8.73
2023-05-10T05:53:05.264Z,8.10
2023-05-10T05:55:38.018Z,8.32
2023-05-10T05:58:10.572Z,8.05
2023-05-10T06:00:43.101Z,8.32
2023-05-10T06:03:15.938Z,8.18
2023-05-10T06:05:49.687Z,7.22
2023-05-10T06:08:22.243Z,8.18
2023-05-10T06:10:54.832Z,7.65
2023-05-10T06:13:33.377Z,8.02
2023-05-10T06:16:06.851Z,6.70
2023-05-10T06:21:12.049Z,8.10
2023-05-10T06:23:45.181Z,7.45
2023-05-10T06:28:50.229Z,7.07
2023-05-10T06:31:22.856Z,7.22
2023-05-10T06:33:56.745Z,7.30
2023-05-10T06:36:29.511Z,7.38
2023-05-10T06:39:02.305Z,8.07
2023-05-10T06:41:34.947Z,7.57
2023-05-10T06:44:07.476Z,7.45
2023-05-10T06:46:40.336Z,7.40
2023-05-10T06:49:13.038Z,7.45
2023-05-10T06:51:46.347Z,7.80
2023-05-10T06:54:19.212Z,8.60
2023-05-10T06:56:51.980Z,7.20
2023-05-10T06:59:25.437Z,7.00
2023-05-10T07:01:58.039Z,6.57
2023-05-10T07:04:30.749Z,6.20
2023-05-10T07:07:03.434Z,6.75
2023-05-10T07:09:36.213Z,6.25
2023-05-10T07:12:11.049Z,6.15
2023-05-10T07:14:44.830Z,6.07
2023-05-10T07:17:17.446Z,5.80
2023-05-10T07:19:50.106Z,5.63
2023-05-10T07:22:22.798Z,6.75
2023-05-10T07:24:55.791Z,5.57
2023-05-10T07:27:28.423Z,5.60
2023-05-10T07:30:01.702Z,6.97
2023-05-10T07:32:34.396Z,5.78
2023-05-10T07:35:07.994Z,6.13
2023-05-10T07:37:40.832Z,6.65
2023-05-10T07:40:13.557Z,6.45
2023-05-10T07:42:46.077Z,6.75
2023-05-10T07:45:19.778Z,6.22
2023-05-10T07:47:52.408Z,6.80
2023-05-10T07:50:25.117Z,6.97
2023-05-10T07:52:57.908Z,6.30
2023-05-10T07:55:30.705Z,6.43
2023-05-10T07:58:03.689Z,6.95
2023-05-10T08:00:36.305Z,5.68
2023-05-10T08:03:09.040Z,5.85
2023-05-10T08:05:41.856Z,6.72
2023-05-10T08:08:14.452Z,7.15
2023-05-10T08:10:47.707Z,4.80
2023-05-10T08:13:20.383Z,5.53
2023-05-10T08:15:54.376Z,6.10
2023-05-10T08:18:26.953Z,6.10
2023-05-10T08:20:59.602Z,8.85
2023-05-10T08:23:32.229Z,7.75
2023-05-10T08:26:05.014Z,7.30
2023-05-10T08:28:37.648Z,6.95
2023-05-10T08:31:10.245Z,7.30
2023-05-10T08:33:44.423Z,8.07
2023-05-10T08:36:20.946Z,7.45
2023-05-10T08:38:53.590Z,7.05
2023-05-10T08:41:29.544Z,7.60
2023-05-10T08:44:05.484Z,7.05
2023-05-10T08:46:43.867Z,6.40
2023-05-10T08:49:21.704Z,6.80
2023-05-10T08:51:57.176Z,6.75
2023-05-10T08:54:29.806Z,6.82
2023-05-10T08:57:03.003Z,6.63
2023-05-10T08:59:35.744Z,6.90
2023-05-10T09:02:11.249Z,7.18
2023-05-10T09:04:44.119Z,6.95
2023-05-10T09:07:17.263Z,6.78
2023-05-10T09:09:50.408Z,6.22
2023-05-10T09:12:23.104Z,5.80
2023-05-10T09:14:56.470Z,5.75
2023-05-10T09:17:30.368Z,6.10
2023-05-10T09:20:08.243Z,7.35
2023-05-10T09:22:41.440Z,7.13
2023-05-10T09:25:16.000Z,5.68
2023-05-10T09:27:49.991Z,5.78
2023-05-10T09:30:28.015Z,6.03
2023-05-10T09:33:01.691Z,4.85
2023-05-10T09:35:35.263Z,6.75
2023-05-10T09:38:07.836Z,5.50
2023-05-10T09:40:40.441Z,5.75
2023-05-10T09:43:15.250Z,6.28
2023-05-10T09:45:51.218Z,6.10
2023-05-10T09:48:29.057Z,5.93
2023-05-10T09:51:08.497Z,6.15
2023-05-10T09:53:41.405Z,7.60
2023-05-10T09:56:35.830Z,7.47
2023-05-10T09:59:11.075Z,7.03
2023-05-10T10:01:50.761Z,6.97
2023-05-10T10:04:23.475Z,6.05
2023-05-10T10:07:04.118Z,5.95
2023-05-10T10:09:36.990Z,6.00
2023-05-10T10:12:09.952Z,6.07
2023-05-10T10:14:43.159Z,4.32
2023-05-10T10:17:16.903Z,3.55
2023-05-10T10:19:50.503Z,3.13
2023-05-10T10:22:23.136Z,2.75
2023-05-10T10:24:59.024Z,2.47
2023-05-10T10:27:55.108Z,2.85
2023-05-10T10:30:43.507Z,2.55
2023-05-10T10:33:31.998Z,2.80
2023-05-10T10:36:05.966Z,3.05
2023-05-10T10:38:48.907Z,3.33
2023-05-10T10:41:45.679Z,3.47
2023-05-10T10:44:26.654Z,2.63
2023-05-10T10:47:02.666Z,3.20
2023-05-10T10:49:42.258Z,2.75
2023-05-10T10:52:32.519Z,3.10
2023-05-10T10:55:10.487Z,2.85
2023-05-10T10:57:53.095Z,3.05
2023-05-10T11:00:33.674Z,2.85
2023-05-10T11:03:08.607Z,3.67
2023-05-10T11:05:53.757Z,3.50
2023-05-10T11:08:36.891Z,4.00
2023-05-10T11:11:10.913Z,3.05
2023-05-10T11:13:48.441Z,3.50
2023-05-10T11:16:26.770Z,3.83
2023-05-10T11:19:03.865Z,2.95
2023-05-10T11:21:50.553Z,3.33
2023-05-10T11:24:28.266Z,3.13
2023-05-10T11:27:02.108Z,3.20
2023-05-10T11:29:34.723Z,3.40
2023-05-10T11:32:09.390Z,3.10
2023-05-10T11:34:42.127Z,3.97
2023-05-10T11:37:14.722Z,4.13
2023-05-10T11:39:51.103Z,4.88
2023-05-10T11:42:23.661Z,4.43
2023-05-10T11:44:56.363Z,4.25
2023-05-10T11:47:29.107Z,3.88
2023-05-10T11:50:02.057Z,4.20
2023-05-10T11:52:41.506Z,3.90
2023-05-10T11:55:14.068Z,3.88
2023-05-10T11:57:47.463Z,4.45
2023-05-10T12:00:20.325Z,4.25
2023-05-10T12:05:26.050Z,4.00
2023-05-10T12:08:15.043Z,3.72
2023-05-10T12:10:47.625Z,3.95
2023-05-10T12:13:21.688Z,3.60
2023-05-10T12:15:54.247Z,3.97
2023-05-10T12:18:27.128Z,3.80
2023-05-10T12:21:05.575Z,3.70
2023-05-10T12:23:38.207Z,3.42
2023-05-10T12:26:11.680Z,3.85
2023-05-10T12:28:44.515Z,3.88
2023-05-10T12:31:17.325Z,3.95
2023-05-10T12:33:50.560Z,3.72
2023-05-10T12:36:25.144Z,3.47
2023-05-10T12:39:04.332Z,2.80
2023-05-10T12:41:37.237Z,2.90
2023-05-10T12:44:09.811Z,3.55
2023-05-10T12:46:42.436Z,2.97
2023-05-10T12:49:15.133Z,3.58
2023-05-10T12:51:47.743Z,3.17
2023-05-10T12:54:20.409Z,3.28
2023-05-10T12:56:53.074Z,3.53
2023-05-10T12:59:25.691Z,4.22
2023-05-10T13:01:59.150Z,3.28
2023-05-10T13:04:31.827Z,3.20
2023-05-10T13:07:04.395Z,3.67
2023-05-10T13:09:37.135Z,3.35
2023-05-10T13:12:10.227Z,3.63
2023-05-10T13:14:43.067Z,3.08
2023-05-10T13:17:15.748Z,3.15
2023-05-10T13:19:48.275Z,3.15
2023-05-10T13:22:32.484Z,3.47
2023-05-10T13:25:09.938Z,3.33
2023-05-10T13:30:15.194Z,3.17
2023-05-10T13:35:20.626Z,2.83
2023-05-10T13:37:54.657Z,3.17
2023-05-10T13:40:27.278Z,3.55
2023-05-10T13:42:59.955Z,3.42
2023-05-10T13:45:32.514Z,3.78
2023-05-10T13:48:05.474Z,4.05
2023-05-10T13:50:38.131Z,3.80
2023-05-10T13:53:10.659Z,3.90
2023-05-10T13:55:46.302Z,2.80
2023-05-10T13:58:18.765Z,3.40
2023-05-10T14:00:51.321Z,3.97
2023-05-10T14:03:24.062Z,3.72
2023-05-10T14:05:56.752Z,4.03
2023-05-10T14:08:29.396Z,4.03
2023-05-10T14:11:02.190Z,3.90
2023-05-10T14:13:34.996Z,4.47
2023-05-10T14:16:08.054Z,4.20
2023-05-10T14:21:13.328Z,4.82
2023-05-10T14:23:45.959Z,4.15
2023-05-10T14:26:18.511Z,6.13
2023-05-10T14:28:50.990Z,5.53
2023-05-10T14:31:25.917Z,6.03
2023-05-10T14:33:58.963Z,4.97
2023-05-10T14:36:31.500Z,4.88
2023-05-10T14:39:04.227Z,5.50
2023-05-10T14:41:45.743Z,6.18
2023-05-10T14:44:18.400Z,5.82
2023-05-10T14:46:50.954Z,6.05
2023-05-10T14:49:26.102Z,5.38
2023-05-10T14:51:58.661Z,6.30
2023-05-10T14:54:31.358Z,4.75
2023-05-10T14:57:03.977Z,5.95
2023-05-10T14:59:36.811Z,5.55
2023-05-10T15:02:10.816Z,5.88
2023-05-10T15:04:44.252Z,6.18
2023-05-10T15:07:18.604Z,5.93
2023-05-10T15:09:53.135Z,5.75
2023-05-10T15:12:25.910Z,5.65
2023-05-10T15:14:58.478Z,5.82
2023-05-10T15:17:31.443Z,6.32
2023-05-10T15:20:04.837Z,5.28
2023-05-10T15:22:41.196Z,6.78
2023-05-10T15:25:14.823Z,5.47
2023-05-10T15:27:47.701Z,6.20
2023-05-10T15:30:20.287Z,5.70
2023-05-10T15:32:52.992Z,6.20
2023-05-10T15:35:26.906Z,5.50
2023-05-10T15:37:59.464Z,6.13
2023-05-10T15:40:31.984Z,5.20
2023-05-10T15:43:04.634Z,5.63
2023-05-10T15:45:37.751Z,6.18
2023-05-10T15:48:10.497Z,6.15
2023-05-10T15:50:43.090Z,5.97
2023-05-10T15:53:15.706Z,5.68
2023-05-10T15:55:48.356Z,5.18
2023-05-10T15:58:21.951Z,6.38
2023-05-10T16:00:55.440Z,5.63
2023-05-10T16:03:28.195Z,5.75
2023-05-10T16:06:01.476Z,6.57
2023-05-10T16:08:34.302Z,6.57
2023-05-10T16:11:08.320Z,6.75
2023-05-10T16:13:41.210Z,6.78
2023-05-10T16:16:13.804Z,7.30
2023-05-10T16:18:46.509Z,7.55
2023-05-10T16:21:19.237Z,7.50
2023-05-10T16:23:51.733Z,7.55
2023-05-10T16:26:24.322Z,6.85
2023-05-10T16:28:56.990Z,7.07
2023-05-10T16:31:29.837Z,8.13
2023-05-10T16:34:02.534Z,8.60
2023-05-10T16:36:35.593Z,8.02
2023-05-10T16:41:42.132Z,6.82
2023-05-10T16:44:14.732Z,7.03
2023-05-10T16:46:49.086Z,8.52
2023-05-10T16:49:23.095Z,7.78
2023-05-10T16:51:56.449Z,8.20
2023-05-10T16:54:29.706Z,8.02
2023-05-10T16:57:02.492Z,8.05
2023-05-10T16:59:37.979Z,8.65
2023-05-10T17:02:10.592Z,8.55
2023-05-10T17:04:43.814Z,8.13
2023-05-10T17:07:16.954Z,9.10
2023-05-10T17:09:49.746Z,7.38
2023-05-10T17:12:22.390Z,8.98
2023-05-10T17:14:55.000Z,8.75
2023-05-10T17:17:27.708Z,9.18
2023-05-10T17:20:00.779Z,9.07
2023-05-10T17:22:33.382Z,10.02
2023-05-10T17:25:06.695Z,9.90
2023-05-10T17:27:39.543Z,10.15
2023-05-10T17:30:12.831Z,9.75
2023-05-10T17:32:45.487Z,10.50
2023-05-10T17:35:18.515Z,10.48
2023-05-10T17:40:24.204Z,9.45
2023-05-10T17:42:56.960Z,10.43
2023-05-10T17:45:29.752Z,9.77
2023-05-10T17:48:02.470Z,9.02
2023-05-10T17:50:35.632Z,8.77
2023-05-10T17:55:42.046Z,8.50
2023-05-10T17:58:14.751Z,9.68
2023-05-10T18:00:47.420Z,9.57
2023-05-10T18:03:21.206Z,10.40
2023-05-10T18:05:55.576Z,11.00
2023-05-10T18:08:30.694Z,10.55
2023-05-10T18:11:03.545Z,13.15
2023-05-10T18:13:36.142Z,11.10
2023-05-10T18:16:12.941Z,10.63
2023-05-10T18:18:45.722Z,11.13
2023-05-10T18:21:18.509Z,10.98
2023-05-10T18:23:51.071Z,10.52
2023-05-10T18:26:23.777Z,11.10
2023-05-10T18:28:57.320Z,11.13
2023-05-10T18:31:34.437Z,10.05
2023-05-10T18:34:26.517Z,12.68
2023-05-10T18:37:29.827Z,11.52
2023-05-10T18:45:57.032Z,14.23
2023-05-10T18:48:29.612Z,14.80
2023-05-10T18:51:02.328Z,17.65
2023-05-10T18:53:35.189Z,19.30
2023-05-10T18:56:08.175Z,17.02
2023-05-10T18:58:41.351Z,13.68
2023-05-10T19:03:46.802Z,14.40
2023-05-10T19:06:22.359Z,14.30
2023-05-10T19:08:55.190Z,16.48
2023-05-10T19:11:30.855Z,15.48
2023-05-10T19:14:07.720Z,17.85
2023-05-10T19:16:53.525Z,18.02
2023-05-10T19:19:36.685Z,19.08
2023-05-10T19:22:09.716Z,19.13
2023-05-10T19:27:18.338Z,18.88
2023-05-10T19:29:54.515Z,17.98
2023-05-10T19:32:27.456Z,16.23
2023-05-10T19:35:00.993Z,15.48
2023-05-10T19:37:34.499Z,16.67
2023-05-10T19:40:10.839Z,14.68
2023-05-10T19:42:45.535Z,15.35
2023-05-10T19:45:19.500Z,15.15
2023-05-10T19:47:54.039Z,15.40
2023-05-10T19:50:27.207Z,16.33
2023-05-10T19:53:00.938Z,16.27
2023-05-10T19:55:34.171Z,15.73
2023-05-10T19:58:07.012Z,15.73
2023-05-10T20:00:39.634Z,16.90
2023-05-10T20:03:12.500Z,17.23
2023-05-10T20:05:45.108Z,17.33
2023-05-10T20:08:18.055Z,17.55
2023-05-10T20:10:51.007Z,16.90
2023-05-10T20:16:00.102Z,18.08
2023-05-10T20:18:33.626Z,19.20
2023-05-10T20:21:07.413Z,19.67
2023-05-10T20:23:41.270Z,19.75
2023-05-10T20:26:15.160Z,21.08
2023-05-10T20:28:48.653Z,20.65
2023-05-10T20:31:21.569Z,22.70
2023-05-10T20:33:54.457Z,18.85
2023-05-10T20:39:00.101Z,19.77
2023-05-10T20:41:33.318Z,20.52
2023-05-10T20:44:06.999Z,20.02
2023-05-10T20:46:40.784Z,19.10
2023-05-10T20:49:15.155Z,19.92
2023-05-10T20:51:49.364Z,18.23
2023-05-10T20:54:24.715Z,18.85
2023-05-10T20:56:58.131Z,18.30
2023-05-10T20:59:31.016Z,18.73
2023-05-10T21:02:03.761Z,19.17
2023-05-10T21:04:36.509Z,18.45
2023-05-10T21:07:09.164Z,19.58
2023-05-10T21:09:41.864Z,19.08
2023-05-10T21:12:14.592Z,18.75
2023-05-10T21:14:48.015Z,18.50
2023-05-10T21:17:20.715Z,17.60
2023-05-10T21:19:53.280Z,15.27
2023-05-10T21:22:26.566Z,16.30
2023-05-10T21:24:59.185Z,15.80
2023-05-10T21:27:31.893Z,16.23
2023-05-10T21:30:06.619Z,16.13
2023-05-10T21:32:39.384Z,18.35
2023-05-10T21:35:13.280Z,17.55
2023-05-10T21:37:45.914Z,17.08
2023-05-10T21:40:18.905Z,18.38
2023-05-10T21:45:24.509Z,20.63
2023-05-10T21:47:57.141Z,20.27
2023-05-10T21:50:29.793Z,19.75
2023-05-10T21:53:02.742Z,19.67
2023-05-10T21:55:35.436Z,20.45
2023-05-10T21:58:08.034Z,20.33
2023-05-10T22:00:40.724Z,19.95
2023-05-10T22:03:13.577Z,19.00
2023-05-10T22:05:46.313Z,18.60
2023-05-10T22:08:18.904Z,19.02
2023-05-10T22:10:52.468Z,16.40
2023-05-10T22:13:25.952Z,15.73
2023-05-10T22:15:58.671Z,15.02
2023-05-10T22:18:31.342Z,13.07
2023-05-10T22:21:04.074Z,11.82
2023-05-10T22:23:36.690Z,10.60
2023-05-10T22:26:09.284Z,10.82
2023-05-10T22:28:41.874Z,9.38
2023-05-10T22:31:14.619Z,10.00
2023-05-10T22:33:47.377Z,10.10
2023-05-10T22:36:20.001Z,11.40
2023-05-10T22:38:52.598Z,10.80
2023-05-10T22:41:25.327Z,10.80
2023-05-10T22:43:58.497Z,9.98
2023-05-10T22:49:06.510Z,10.73
2023-05-10T22:51:40.657Z,10.07
2023-05-10T22:54:13.269Z,10.40
2023-05-10T22:56:46.376Z,9.27
2023-05-10T23:01:51.753Z,10.25
2023-05-10T23:04:24.680Z,11.82
2023-05-10T23:06:57.308Z,10.90
2023-05-10T23:09:30.037Z,10.68
2023-05-10T23:12:03.167Z,10.93
2023-05-10T23:17:08.689Z,9.57
2023-05-10T23:19:41.285Z,9.73
2023-05-10T23:22:14.094Z,10.70
2023-05-10T23:24:46.628Z,10.73
2023-05-10T23:27:19.283Z,10.00
2023-05-10T23:29:55.829Z,10.27
2023-05-10T23:32:28.413Z,10.20
2023-05-10T23:35:01.186Z,9.18
2023-05-10T23:37:33.781Z,10.05
2023-05-10T23:40:07.033Z,11.00
2023-05-10T23:42:39.692Z,9.82
2023-05-10T23:45:13.558Z,10.65
2023-05-10T23:47:46.154Z,10.20
2023-05-10T23:50:19.020Z,10.77
2023-05-10T23:52:51.834Z,12.15
2023-05-10T23:55:24.427Z,11.38
2023-05-10T23:57:57.253Z,12.82
